sensor_id;sensor_type;location;lat;lon;timestamp;P1;durP1;ratioP1;P2;durP2;ratioP2
62258;SDS011;48241;48.824;10.102;2023-03-01T00:01:30;22.67;;;12.93;;
62258;SDS011;48241;48.824;10.102;2023-03-01T00:03:56;23.45;;;13.80;;
62258;SDS011;48241;48.824;10.102;2023-03-01T00:06:23;21.77;;;13.30;;
62258;SDS011;48241;48.824;10.102;2023-03-01T00:08:50;24.33;;;14.05;;
62258;SDS011;48241;48.824;10.102;2023-03-01T00:11:17;25.92;;;14.05;;
62258;SDS011;48241;48.824;10.102;2023-03-01T00:13:46;23.05;;;13.02;;
62258;SDS011;48241;48.824;10.102;2023-03-01T00:16:13;25.23;;;14.35;;
62258;SDS011;48241;48.824;10.102;2023-03-01T00:18:41;24.58;;;13.90;;
62258;SDS011;48241;48.824;10.102;2023-03-01T00:21:07;24.92;;;13.93;;
62258;SDS011;48241;48.824;10.102;2023-03-01T00:23:36;25.02;;;13.98;;
62258;SDS011;48241;48.824;10.102;2023-03-01T00:26:05;23.73;;;14.00;;
62258;SDS011;48241;48.824;10.102;2023-03-01T00:28:32;21.63;;;12.80;;
62258;SDS011;48241;48.824;10.102;2023-03-01T00:31:31;23.48;;;12.85;;
62258;SDS011;48241;48.824;10.102;2023-03-01T00:33:58;24.38;;;14.13;;
62258;SDS011;48241;48.824;10.102;2023-03-01T00:36:27;26.83;;;14.35;;
62258;SDS011;48241;48.824;10.102;2023-03-01T00:38:54;25.95;;;14.18;;
62258;SDS011;48241;48.824;10.102;2023-03-01T00:41:20;23.60;;;13.60;;
62258;SDS011;48241;48.824;10.102;2023-03-01T00:43:47;26.55;;;14.35;;
62258;SDS011;48241;48.824;10.102;2023-03-01T00:46:16;23.80;;;13.45;;
62258;SDS011;48241;48.824;10.102;2023-03-01T00:48:43;23.63;;;14.38;;
62258;SDS011;48241;48.824;10.102;2023-03-01T00:51:13;23.55;;;14.45;;
62258;SDS011;48241;48.824;10.102;2023-03-01T00:53:40;24.55;;;14.50;;
62258;SDS011;48241;48.824;10.102;2023-03-01T00:56:07;25.40;;;14.02;;
62258;SDS011;48241;48.824;10.102;2023-03-01T00:58:34;28.30;;;15.07;;
62258;SDS011;48241;48.824;10.102;2023-03-01T01:01:00;24.75;;;14.70;;
62258;SDS011;48241;48.824;10.102;2023-03-01T01:03:32;26.42;;;14.93;;
62258;SDS011;48241;48.824;10.102;2023-03-01T01:05:57;25.17;;;15.07;;
62258;SDS011;48241;48.824;10.102;2023-03-01T01:08:23;25.38;;;14.80;;
62258;SDS011;48241;48.824;10.102;2023-03-01T01:10:48;23.65;;;14.32;;
62258;SDS011;48241;48.824;10.102;2023-03-01T01:13:14;24.73;;;14.30;;
62258;SDS011;48241;48.824;10.102;2023-03-01T01:15:39;26.40;;;14.45;;
62258;SDS011;48241;48.824;10.102;2023-03-01T01:18:05;24.77;;;15.25;;
62258;SDS011;48241;48.824;10.102;2023-03-01T01:20:31;23.02;;;14.57;;
62258;SDS011;48241;48.824;10.102;2023-03-01T01:22:57;24.15;;;14.15;;
62258;SDS011;48241;48.824;10.102;2023-03-01T01:25:22;26.20;;;14.88;;
62258;SDS011;48241;48.824;10.102;2023-03-01T01:27:50;22.48;;;14.20;;
62258;SDS011;48241;48.824;10.102;2023-03-01T01:30:15;25.02;;;15.73;;
62258;SDS011;48241;48.824;10.102;2023-03-01T01:32:41;21.92;;;11.40;;
62258;SDS011;48241;48.824;10.102;2023-03-01T01:35:07;27.23;;;16.08;;
62258;SDS011;48241;48.824;10.102;2023-03-01T01:37:32;24.10;;;14.10;;
62258;SDS011;48241;48.824;10.102;2023-03-01T01:39:58;22.98;;;13.02;;
62258;SDS011;48241;48.824;10.102;2023-03-01T01:42:25;26.20;;;14.85;;
62258;SDS011;48241;48.824;10.102;2023-03-01T01:47:54;23.83;;;14.35;;
62258;SDS011;48241;48.824;10.102;2023-03-01T01:50:23;24.60;;;14.73;;
62258;SDS011;48241;48.824;10.102;2023-03-01T01:52:50;23.98;;;14.52;;
62258;SDS011;48241;48.824;10.102;2023-03-01T01:55:19;20.70;;;12.27;;
62258;SDS011;48241;48.824;10.102;2023-03-01T01:57:58;25.48;;;15.77;;
62258;SDS011;48241;48.824;10.102;2023-03-01T02:00:28;21.10;;;10.10;;
62258;SDS011;48241;48.824;10.102;2023-03-01T02:02:59;24.55;;;14.00;;
62258;SDS011;48241;48.824;10.102;2023-03-01T02:08:32;19.80;;;10.52;;
62258;SDS011;48241;48.824;10.102;2023-03-01T02:11:01;27.33;;;14.32;;
62258;SDS011;48241;48.824;10.102;2023-03-01T02:13:29;22.58;;;12.98;;
62258;SDS011;48241;48.824;10.102;2023-03-01T02:15:56;19.92;;;11.30;;
62258;SDS011;48241;48.824;10.102;2023-03-01T02:18:22;23.58;;;13.82;;
62258;SDS011;48241;48.824;10.102;2023-03-01T02:20:59;22.48;;;13.98;;
62258;SDS011;48241;48.824;10.102;2023-03-01T02:23:32;21.63;;;11.68;;
62258;SDS011;48241;48.824;10.102;2023-03-01T02:28:31;28.60;;;15.60;;
62258;SDS011;48241;48.824;10.102;2023-03-01T02:30:58;24.30;;;14.63;;
62258;SDS011;48241;48.824;10.102;2023-03-01T02:33:42;21.83;;;13.90;;
62258;SDS011;48241;48.824;10.102;2023-03-01T02:36:11;27.15;;;15.35;;
62258;SDS011;48241;48.824;10.102;2023-03-01T02:38:41;26.25;;;15.35;;
62258;SDS011;48241;48.824;10.102;2023-03-01T02:41:07;26.25;;;15.27;;
62258;SDS011;48241;48.824;10.102;2023-03-01T02:43:35;23.73;;;13.98;;
62258;SDS011;48241;48.824;10.102;2023-03-01T02:46:06;24.80;;;16.10;;
62258;SDS011;48241;48.824;10.102;2023-03-01T02:48:40;26.30;;;15.80;;
62258;SDS011;48241;48.824;10.102;2023-03-01T02:56:54;27.80;;;15.98;;
62258;SDS011;48241;48.824;10.102;2023-03-01T02:59:22;27.50;;;15.40;;
62258;SDS011;48241;48.824;10.102;2023-03-01T03:01:52;24.25;;;15.15;;
62258;SDS011;48241;48.824;10.102;2023-03-01T03:04:18;24.30;;;14.45;;
62258;SDS011;48241;48.824;10.102;2023-03-01T03:06:46;26.52;;;15.50;;
62258;SDS011;48241;48.824;10.102;2023-03-01T03:09:13;30.35;;;15.63;;
62258;SDS011;48241;48.824;10.102;2023-03-01T03:11:39;26.92;;;15.63;;
62258;SDS011;48241;48.824;10.102;2023-03-01T03:14:06;24.85;;;15.57;;
62258;SDS011;48241;48.824;10.102;2023-03-01T03:16:38;25.85;;;15.15;;
62258;SDS011;48241;48.824;10.102;2023-03-01T03:19:06;27.90;;;15.73;;
62258;SDS011;48241;48.824;10.102;2023-03-01T03:21:32;25.85;;;15.77;;
62258;SDS011;48241;48.824;10.102;2023-03-01T03:23:57;27.05;;;15.88;;
62258;SDS011;48241;48.824;10.102;2023-03-01T03:26:23;25.40;;;15.38;;
62258;SDS011;48241;48.824;10.102;2023-03-01T03:28:49;26.05;;;15.60;;
62258;SDS011;48241;48.824;10.102;2023-03-01T03:31:14;28.42;;;15.65;;
62258;SDS011;48241;48.824;10.102;2023-03-01T03:33:40;27.15;;;15.77;;
62258;SDS011;48241;48.824;10.102;2023-03-01T03:36:06;25.02;;;15.00;;
62258;SDS011;48241;48.824;10.102;2023-03-01T03:38:31;26.05;;;16.02;;
62258;SDS011;48241;48.824;10.102;2023-03-01T03:41:02;26.40;;;15.88;;
62258;SDS011;48241;48.824;10.102;2023-03-01T03:43:31;28.02;;;15.85;;
62258;SDS011;48241;48.824;10.102;2023-03-01T03:45:57;25.52;;;15.38;;
62258;SDS011;48241;48.824;10.102;2023-03-01T03:48:23;26.67;;;15.80;;
62258;SDS011;48241;48.824;10.102;2023-03-01T03:50:51;26.35;;;16.15;;
62258;SDS011;48241;48.824;10.102;2023-03-01T03:53:18;24.48;;;15.52;;
62258;SDS011;48241;48.824;10.102;2023-03-01T03:55:44;28.60;;;17.10;;
62258;SDS011;48241;48.824;10.102;2023-03-01T03:58:14;27.60;;;15.95;;
62258;SDS011;48241;48.824;10.102;2023-03-01T04:00:41;24.13;;;14.55;;
62258;SDS011;48241;48.824;10.102;2023-03-01T04:03:09;25.10;;;15.57;;
62258;SDS011;48241;48.824;10.102;2023-03-01T04:05:35;25.88;;;15.25;;
62258;SDS011;48241;48.824;10.102;2023-03-01T04:08:02;23.48;;;14.75;;
62258;SDS011;48241;48.824;10.102;2023-03-01T04:10:28;24.65;;;15.13;;
62258;SDS011;48241;48.824;10.102;2023-03-01T04:12:55;25.13;;;15.63;;
62258;SDS011;48241;48.824;10.102;2023-03-01T04:15:22;24.35;;;14.88;;
62258;SDS011;48241;48.824;10.102;2023-03-01T04:17:49;25.17;;;15.45;;
62258;SDS011;48241;48.824;10.102;2023-03-01T04:20:17;22.42;;;14.27;;
62258;SDS011;48241;48.824;10.102;2023-03-01T04:22:57;24.25;;;15.38;;
62258;SDS011;48241;48.824;10.102;2023-03-01T04:25:59;25.15;;;15.55;;
62258;SDS011;48241;48.824;10.102;2023-03-01T04:28:25;26.13;;;14.90;;
62258;SDS011;48241;48.824;10.102;2023-03-01T04:31:05;26.20;;;15.93;;
62258;SDS011;48241;48.824;10.102;2023-03-01T04:33:38;26.70;;;16.55;;
62258;SDS011;48241;48.824;10.102;2023-03-01T04:36:16;25.60;;;16.13;;
62258;SDS011;48241;48.824;10.102;2023-03-01T04:38:43;25.70;;;16.38;;
62258;SDS011;48241;48.824;10.102;2023-03-01T04:41:12;27.23;;;16.50;;
62258;SDS011;48241;48.824;10.102;2023-03-01T04:43:38;27.02;;;15.70;;
62258;SDS011;48241;48.824;10.102;2023-03-01T04:46:05;24.83;;;14.77;;
62258;SDS011;48241;48.824;10.102;2023-03-01T04:48:34;26.55;;;15.57;;
62258;SDS011;48241;48.824;10.102;2023-03-01T04:51:01;26.13;;;15.63;;
62258;SDS011;48241;48.824;10.102;2023-03-01T04:53:27;25.95;;;16.05;;
62258;SDS011;48241;48.824;10.102;2023-03-01T04:55:53;24.20;;;15.80;;
62258;SDS011;48241;48.824;10.102;2023-03-01T04:58:20;28.13;;;16.83;;
62258;SDS011;48241;48.824;10.102;2023-03-01T05:00:49;26.42;;;15.73;;
62258;SDS011;48241;48.824;10.102;2023-03-01T05:03:15;25.40;;;15.25;;
62258;SDS011;48241;48.824;10.102;2023-03-01T05:05:43;25.08;;;15.15;;
62258;SDS011;48241;48.824;10.102;2023-03-01T05:08:09;25.08;;;15.77;;
62258;SDS011;48241;48.824;10.102;2023-03-01T05:10:43;25.27;;;16.10;;
62258;SDS011;48241;48.824;10.102;2023-03-01T05:13:11;24.63;;;14.90;;
62258;SDS011;48241;48.824;10.102;2023-03-01T05:15:38;27.27;;;15.45;;
62258;SDS011;48241;48.824;10.102;2023-03-01T05:18:04;28.83;;;16.05;;
62258;SDS011;48241;48.824;10.102;2023-03-01T05:20:36;26.30;;;15.18;;
62258;SDS011;48241;48.824;10.102;2023-03-01T05:23:02;27.35;;;15.73;;
62258;SDS011;48241;48.824;10.102;2023-03-01T05:25:30;26.10;;;14.48;;
62258;SDS011;48241;48.824;10.102;2023-03-01T05:27:58;25.25;;;15.05;;
62258;SDS011;48241;48.824;10.102;2023-03-01T05:30:29;25.20;;;15.18;;
62258;SDS011;48241;48.824;10.102;2023-03-01T05:32:56;25.15;;;14.63;;
62258;SDS011;48241;48.824;10.102;2023-03-01T05:35:21;25.75;;;15.70;;
62258;SDS011;48241;48.824;10.102;2023-03-01T05:37:48;25.17;;;15.57;;
62258;SDS011;48241;48.824;10.102;2023-03-01T05:40:15;25.67;;;15.27;;
62258;SDS011;48241;48.824;10.102;2023-03-01T05:42:46;21.05;;;13.30;;
62258;SDS011;48241;48.824;10.102;2023-03-01T05:45:14;27.77;;;16.27;;
62258;SDS011;48241;48.824;10.102;2023-03-01T05:47:41;25.98;;;14.98;;
62258;SDS011;48241;48.824;10.102;2023-03-01T05:50:15;25.25;;;15.23;;
62258;SDS011;48241;48.824;10.102;2023-03-01T05:52:49;25.05;;;14.27;;
62258;SDS011;48241;48.824;10.102;2023-03-01T05:55:17;24.70;;;14.25;;
62258;SDS011;48241;48.824;10.102;2023-03-01T05:57:43;29.67;;;16.35;;
62258;SDS011;48241;48.824;10.102;2023-03-01T06:00:10;25.33;;;15.23;;
62258;SDS011;48241;48.824;10.102;2023-03-01T06:02:37;30.50;;;17.05;;
62258;SDS011;48241;48.824;10.102;2023-03-01T06:05:04;28.98;;;17.17;;
62258;SDS011;48241;48.824;10.102;2023-03-01T06:07:31;28.88;;;16.13;;
62258;SDS011;48241;48.824;10.102;2023-03-01T06:09:57;27.20;;;15.80;;
62258;SDS011;48241;48.824;10.102;2023-03-01T06:12:22;31.13;;;16.58;;
62258;SDS011;48241;48.824;10.102;2023-03-01T06:14:48;31.05;;;16.92;;
62258;SDS011;48241;48.824;10.102;2023-03-01T06:17:13;31.95;;;17.20;;
62258;SDS011;48241;48.824;10.102;2023-03-01T06:19:39;30.08;;;16.40;;
62258;SDS011;48241;48.824;10.102;2023-03-01T06:22:04;31.77;;;16.83;;
62258;SDS011;48241;48.824;10.102;2023-03-01T06:24:30;29.35;;;17.50;;
62258;SDS011;48241;48.824;10.102;2023-03-01T06:26:56;30.70;;;18.25;;
62258;SDS011;48241;48.824;10.102;2023-03-01T06:29:21;29.85;;;16.60;;
62258;SDS011;48241;48.824;10.102;2023-03-01T06:31:47;29.60;;;17.00;;
62258;SDS011;48241;48.824;10.102;2023-03-01T06:34:13;33.65;;;17.05;;
62258;SDS011;48241;48.824;10.102;2023-03-01T06:36:39;33.92;;;17.40;;
62258;SDS011;48241;48.824;10.102;2023-03-01T06:39:05;29.95;;;15.77;;
62258;SDS011;48241;48.824;10.102;2023-03-01T06:41:31;32.30;;;18.25;;
62258;SDS011;48241;48.824;10.102;2023-03-01T06:43:58;33.22;;;17.52;;
62258;SDS011;48241;48.824;10.102;2023-03-01T06:46:24;29.63;;;17.02;;
62258;SDS011;48241;48.824;10.102;2023-03-01T06:48:50;31.90;;;17.90;;
62258;SDS011;48241;48.824;10.102;2023-03-01T06:51:15;31.17;;;17.63;;
62258;SDS011;48241;48.824;10.102;2023-03-01T06:53:41;33.10;;;17.17;;
62258;SDS011;48241;48.824;10.102;2023-03-01T06:56:06;31.00;;;16.00;;
62258;SDS011;48241;48.824;10.102;2023-03-01T06:58:32;32.88;;;17.50;;
62258;SDS011;48241;48.824;10.102;2023-03-01T07:00:57;33.03;;;17.63;;
62258;SDS011;48241;48.824;10.102;2023-03-01T07:03:23;29.70;;;17.13;;
62258;SDS011;48241;48.824;10.102;2023-03-01T07:05:49;27.67;;;16.45;;
62258;SDS011;48241;48.824;10.102;2023-03-01T07:08:17;33.63;;;17.42;;
62258;SDS011;48241;48.824;10.102;2023-03-01T07:10:43;29.42;;;16.75;;
62258;SDS011;48241;48.824;10.102;2023-03-01T07:13:08;30.17;;;16.23;;
62258;SDS011;48241;48.824;10.102;2023-03-01T07:15:36;33.70;;;17.40;;
62258;SDS011;48241;48.824;10.102;2023-03-01T07:18:05;29.30;;;16.55;;
62258;SDS011;48241;48.824;10.102;2023-03-01T07:20:30;29.45;;;16.70;;
62258;SDS011;48241;48.824;10.102;2023-03-01T07:22:56;30.00;;;15.85;;
62258;SDS011;48241;48.824;10.102;2023-03-01T07:25:24;27.10;;;15.45;;
62258;SDS011;48241;48.824;10.102;2023-03-01T07:27:50;28.55;;;17.17;;
62258;SDS011;48241;48.824;10.102;2023-03-01T07:30:22;29.63;;;17.17;;
62258;SDS011;48241;48.824;10.102;2023-03-01T07:32:53;29.65;;;16.70;;
62258;SDS011;48241;48.824;10.102;2023-03-01T07:35:25;27.05;;;16.20;;
62258;SDS011;48241;48.824;10.102;2023-03-01T07:37:52;27.33;;;16.08;;
62258;SDS011;48241;48.824;10.102;2023-03-01T07:40:18;29.85;;;17.23;;
62258;SDS011;48241;48.824;10.102;2023-03-01T07:42:44;27.52;;;14.80;;
62258;SDS011;48241;48.824;10.102;2023-03-01T07:45:10;29.20;;;16.63;;
62258;SDS011;48241;48.824;10.102;2023-03-01T07:47:36;29.35;;;15.10;;
62258;SDS011;48241;48.824;10.102;2023-03-01T07:50:02;27.13;;;15.98;;
62258;SDS011;48241;48.824;10.102;2023-03-01T07:52:28;26.67;;;15.65;;
62258;SDS011;48241;48.824;10.102;2023-03-01T07:54:55;24.23;;;15.63;;
62258;SDS011;48241;48.824;10.102;2023-03-01T07:57:21;27.20;;;15.27;;
62258;SDS011;48241;48.824;10.102;2023-03-01T07:59:49;28.48;;;16.05;;
62258;SDS011;48241;48.824;10.102;2023-03-01T08:02:14;25.63;;;15.18;;
62258;SDS011;48241;48.824;10.102;2023-03-01T08:04:41;25.65;;;14.63;;
62258;SDS011;48241;48.824;10.102;2023-03-01T08:07:07;20.58;;;12.73;;
62258;SDS011;48241;48.824;10.102;2023-03-01T08:09:36;25.85;;;14.77;;
62258;SDS011;48241;48.824;10.102;2023-03-01T08:12:02;26.60;;;14.30;;
62258;SDS011;48241;48.824;10.102;2023-03-01T08:14:29;26.02;;;15.68;;
62258;SDS011;48241;48.824;10.102;2023-03-01T08:16:59;25.33;;;15.15;;
62258;SDS011;48241;48.824;10.102;2023-03-01T08:19:24;26.65;;;16.15;;
62258;SDS011;48241;48.824;10.102;2023-03-01T08:21:50;25.02;;;14.52;;
62258;SDS011;48241;48.824;10.102;2023-03-01T08:24:16;24.75;;;14.52;;
62258;SDS011;48241;48.824;10.102;2023-03-01T08:26:44;25.70;;;14.95;;
62258;SDS011;48241;48.824;10.102;2023-03-01T08:29:09;23.70;;;14.10;;
62258;SDS011;48241;48.824;10.102;2023-03-01T08:31:36;23.60;;;14.75;;
62258;SDS011;48241;48.824;10.102;2023-03-01T08:34:05;20.83;;;13.40;;
62258;SDS011;48241;48.824;10.102;2023-03-01T08:36:38;23.17;;;14.40;;
62258;SDS011;48241;48.824;10.102;2023-03-01T08:39:06;20.55;;;12.82;;
62258;SDS011;48241;48.824;10.102;2023-03-01T08:41:32;19.45;;;12.95;;
62258;SDS011;48241;48.824;10.102;2023-03-01T08:43:59;18.83;;;13.23;;
62258;SDS011;48241;48.824;10.102;2023-03-01T08:46:28;21.33;;;14.30;;
62258;SDS011;48241;48.824;10.102;2023-03-01T08:48:55;22.27;;;13.82;;
62258;SDS011;48241;48.824;10.102;2023-03-01T08:51:21;19.77;;;13.75;;
62258;SDS011;48241;48.824;10.102;2023-03-01T08:53:47;21.08;;;13.25;;
62258;SDS011;48241;48.824;10.102;2023-03-01T08:56:13;22.10;;;13.65;;
62258;SDS011;48241;48.824;10.102;2023-03-01T08:58:39;20.88;;;13.45;;
62258;SDS011;48241;48.824;10.102;2023-03-01T09:01:11;20.38;;;13.05;;
62258;SDS011;48241;48.824;10.102;2023-03-01T09:03:39;18.00;;;12.38;;
62258;SDS011;48241;48.824;10.102;2023-03-01T09:06:05;21.23;;;14.10;;
62258;SDS011;48241;48.824;10.102;2023-03-01T09:08:39;20.98;;;14.02;;
62258;SDS011;48241;48.824;10.102;2023-03-01T09:11:07;18.60;;;12.05;;
62258;SDS011;48241;48.824;10.102;2023-03-01T09:13:34;15.95;;;11.30;;
62258;SDS011;48241;48.824;10.102;2023-03-01T09:16:00;20.13;;;13.05;;
62258;SDS011;48241;48.824;10.102;2023-03-01T09:18:27;20.50;;;12.88;;
62258;SDS011;48241;48.824;10.102;2023-03-01T09:21:00;20.95;;;13.90;;
62258;SDS011;48241;48.824;10.102;2023-03-01T09:23:27;21.73;;;13.20;;
62258;SDS011;48241;48.824;10.102;2023-03-01T09:25:52;22.88;;;13.23;;
62258;SDS011;48241;48.824;10.102;2023-03-01T09:28:18;21.80;;;13.77;;
62258;SDS011;48241;48.824;10.102;2023-03-01T09:30:43;19.33;;;12.35;;
62258;SDS011;48241;48.824;10.102;2023-03-01T09:33:09;22.38;;;13.45;;
62258;SDS011;48241;48.824;10.102;2023-03-01T09:35:39;21.30;;;14.73;;
62258;SDS011;48241;48.824;10.102;2023-03-01T09:38:10;19.88;;;14.13;;
62258;SDS011;48241;48.824;10.102;2023-03-01T09:40:37;22.88;;;13.77;;
62258;SDS011;48241;48.824;10.102;2023-03-01T09:45:55;19.27;;;12.82;;
62258;SDS011;48241;48.824;10.102;2023-03-01T09:48:24;22.00;;;14.48;;
62258;SDS011;48241;48.824;10.102;2023-03-01T09:50:51;22.52;;;14.35;;
62258;SDS011;48241;48.824;10.102;2023-03-01T09:53:21;16.17;;;10.13;;
62258;SDS011;48241;48.824;10.102;2023-03-01T10:04:20;21.02;;;14.27;;
62258;SDS011;48241;48.824;10.102;2023-03-01T10:07:15;22.05;;;14.02;;
62258;SDS011;48241;48.824;10.102;2023-03-01T10:09:52;21.63;;;14.13;;
62258;SDS011;48241;48.824;10.102;2023-03-01T10:12:19;21.05;;;14.43;;
62258;SDS011;48241;48.824;10.102;2023-03-01T10:20:14;19.13;;;11.82;;
62258;SDS011;48241;48.824;10.102;2023-03-01T10:22:49;21.55;;;13.77;;
62258;SDS011;48241;48.824;10.102;2023-03-01T10:28:16;21.08;;;13.93;;
62258;SDS011;48241;48.824;10.102;2023-03-01T10:30:48;21.05;;;13.65;;
62258;SDS011;48241;48.824;10.102;2023-03-01T10:33:16;21.98;;;13.45;;
62258;SDS011;48241;48.824;10.102;2023-03-01T10:35:45;19.35;;;13.65;;
62258;SDS011;48241;48.824;10.102;2023-03-01T10:38:13;24.00;;;14.35;;
62258;SDS011;48241;48.824;10.102;2023-03-01T10:40:50;21.33;;;12.85;;
62258;SDS011;48241;48.824;10.102;2023-03-01T10:43:18;22.33;;;12.80;;
62258;SDS011;48241;48.824;10.102;2023-03-01T10:45:44;21.92;;;13.63;;
62258;SDS011;48241;48.824;10.102;2023-03-01T10:50:44;18.48;;;9.50;;
62258;SDS011;48241;48.824;10.102;2023-03-01T10:53:28;24.85;;;13.60;;
62258;SDS011;48241;48.824;10.102;2023-03-01T10:56:04;18.75;;;12.40;;
62258;SDS011;48241;48.824;10.102;2023-03-01T10:58:32;21.65;;;12.82;;
62258;SDS011;48241;48.824;10.102;2023-03-01T11:01:04;22.13;;;13.13;;
62258;SDS011;48241;48.824;10.102;2023-03-01T11:06:32;16.48;;;11.63;;
62258;SDS011;48241;48.824;10.102;2023-03-01T11:09:01;16.27;;;11.32;;
62258;SDS011;48241;48.824;10.102;2023-03-01T11:11:38;18.77;;;11.00;;
62258;SDS011;48241;48.824;10.102;2023-03-01T11:14:07;19.15;;;12.13;;
62258;SDS011;48241;48.824;10.102;2023-03-01T11:16:59;18.48;;;11.05;;
62258;SDS011;48241;48.824;10.102;2023-03-01T11:19:27;17.67;;;10.95;;
62258;SDS011;48241;48.824;10.102;2023-03-01T11:22:00;15.48;;;10.45;;
62258;SDS011;48241;48.824;10.102;2023-03-01T11:24:30;16.95;;;11.32;;
62258;SDS011;48241;48.824;10.102;2023-03-01T11:27:08;17.98;;;11.35;;
62258;SDS011;48241;48.824;10.102;2023-03-01T11:33:05;12.60;;;9.05;;
62258;SDS011;48241;48.824;10.102;2023-03-01T11:35:49;21.23;;;11.32;;
62258;SDS011;48241;48.824;10.102;2023-03-01T11:38:23;16.33;;;10.35;;
62258;SDS011;48241;48.824;10.102;2023-03-01T11:56:49;16.58;;;11.35;;
62258;SDS011;48241;48.824;10.102;2023-03-01T11:59:33;18.55;;;11.27;;
62258;SDS011;48241;48.824;10.102;2023-03-01T12:02:40;18.67;;;11.75;;
62258;SDS011;48241;48.824;10.102;2023-03-01T12:08:26;17.30;;;11.68;;
62258;SDS011;48241;48.824;10.102;2023-03-01T12:16:49;18.60;;;11.77;;
62258;SDS011;48241;48.824;10.102;2023-03-01T12:19:25;17.27;;;11.95;;
62258;SDS011;48241;48.824;10.102;2023-03-01T12:22:17;20.13;;;13.25;;
62258;SDS011;48241;48.824;10.102;2023-03-01T12:24:58;16.27;;;11.23;;
62258;SDS011;48241;48.824;10.102;2023-03-01T12:36:19;21.00;;;14.02;;
62258;SDS011;48241;48.824;10.102;2023-03-01T12:38:50;21.90;;;13.65;;
62258;SDS011;48241;48.824;10.102;2023-03-01T12:49:33;21.85;;;13.65;;
62258;SDS011;48241;48.824;10.102;2023-03-01T12:52:09;19.60;;;13.68;;
62258;SDS011;48241;48.824;10.102;2023-03-01T12:54:36;19.13;;;14.48;;
62258;SDS011;48241;48.824;10.102;2023-03-01T12:59:42;19.27;;;12.98;;
62258;SDS011;48241;48.824;10.102;2023-03-01T13:05:37;21.73;;;13.20;;
62258;SDS011;48241;48.824;10.102;2023-03-01T13:08:27;19.98;;;13.20;;
62258;SDS011;48241;48.824;10.102;2023-03-01T13:11:01;19.88;;;13.32;;
62258;SDS011;48241;48.824;10.102;2023-03-01T13:13:29;21.63;;;13.40;;
62258;SDS011;48241;48.824;10.102;2023-03-01T13:15:56;22.60;;;13.98;;
62258;SDS011;48241;48.824;10.102;2023-03-01T13:20:50;19.95;;;12.30;;
62258;SDS011;48241;48.824;10.102;2023-03-01T13:28:55;19.83;;;12.90;;
62258;SDS011;48241;48.824;10.102;2023-03-01T13:33:59;18.35;;;12.30;;
62258;SDS011;48241;48.824;10.102;2023-03-01T13:38:56;20.20;;;13.55;;
62258;SDS011;48241;48.824;10.102;2023-03-01T13:49:42;18.23;;;11.95;;
62258;SDS011;48241;48.824;10.102;2023-03-01T13:54:47;18.38;;;10.10;;
62258;SDS011;48241;48.824;10.102;2023-03-01T13:57:12;17.30;;;11.60;;
62258;SDS011;48241;48.824;10.102;2023-03-01T13:59:47;18.63;;;12.85;;
62258;SDS011;48241;48.824;10.102;2023-03-01T14:02:13;19.13;;;12.02;;
62258;SDS011;48241;48.824;10.102;2023-03-01T14:04:40;11.13;;;6.47;;
62258;SDS011;48241;48.824;10.102;2023-03-01T14:07:19;21.08;;;13.05;;
62258;SDS011;48241;48.824;10.102;2023-03-01T14:09:48;18.70;;;11.68;;
62258;SDS011;48241;48.824;10.102;2023-03-01T14:17:52;20.83;;;13.30;;
62258;SDS011;48241;48.824;10.102;2023-03-01T14:20:26;19.45;;;12.88;;
62258;SDS011;48241;48.824;10.102;2023-03-01T14:22:55;18.95;;;13.35;;
62258;SDS011;48241;48.824;10.102;2023-03-01T14:25:31;17.25;;;12.05;;
62258;SDS011;48241;48.824;10.102;2023-03-01T14:28:00;18.23;;;12.60;;
62258;SDS011;48241;48.824;10.102;2023-03-01T14:30:42;16.70;;;11.35;;
62258;SDS011;48241;48.824;10.102;2023-03-01T14:33:32;16.70;;;11.88;;
62258;SDS011;48241;48.824;10.102;2023-03-01T14:36:00;18.08;;;11.07;;
62258;SDS011;48241;48.824;10.102;2023-03-01T14:38:33;20.50;;;12.63;;
62258;SDS011;48241;48.824;10.102;2023-03-01T14:41:06;17.98;;;12.43;;
62258;SDS011;48241;48.824;10.102;2023-03-01T14:43:47;23.60;;;14.10;;
62258;SDS011;48241;48.824;10.102;2023-03-01T14:46:22;21.95;;;14.50;;
62258;SDS011;48241;48.824;10.102;2023-03-01T14:48:55;18.17;;;12.30;;
62258;SDS011;48241;48.824;10.102;2023-03-01T14:51:23;20.77;;;12.25;;
62258;SDS011;48241;48.824;10.102;2023-03-01T14:53:49;19.27;;;12.90;;
62258;SDS011;48241;48.824;10.102;2023-03-01T14:56:16;18.83;;;11.30;;
62258;SDS011;48241;48.824;10.102;2023-03-01T14:58:43;21.88;;;12.63;;
62258;SDS011;48241;48.824;10.102;2023-03-01T15:01:10;19.83;;;13.10;;
62258;SDS011;48241;48.824;10.102;2023-03-01T15:03:41;22.15;;;12.73;;
62258;SDS011;48241;48.824;10.102;2023-03-01T15:06:09;21.48;;;13.68;;
62258;SDS011;48241;48.824;10.102;2023-03-01T15:08:41;17.88;;;12.38;;
62258;SDS011;48241;48.824;10.102;2023-03-01T15:13:38;16.23;;;11.13;;
62258;SDS011;48241;48.824;10.102;2023-03-01T15:16:11;17.73;;;12.70;;
62258;SDS011;48241;48.824;10.102;2023-03-01T15:18:49;18.15;;;12.63;;
62258;SDS011;48241;48.824;10.102;2023-03-01T15:27:12;18.27;;;11.33;;
62258;SDS011;48241;48.824;10.102;2023-03-01T15:29:39;18.08;;;11.93;;
62258;SDS011;48241;48.824;10.102;2023-03-01T15:32:06;18.98;;;12.05;;
62258;SDS011;48241;48.824;10.102;2023-03-01T15:34:49;19.85;;;12.18;;
62258;SDS011;48241;48.824;10.102;2023-03-01T15:40:19;17.98;;;12.38;;
62258;SDS011;48241;48.824;10.102;2023-03-01T15:42:45;20.42;;;12.35;;
62258;SDS011;48241;48.824;10.102;2023-03-01T15:47:43;22.83;;;13.25;;
62258;SDS011;48241;48.824;10.102;2023-03-01T15:50:17;21.17;;;12.23;;
62258;SDS011;48241;48.824;10.102;2023-03-01T15:52:48;18.35;;;11.80;;
62258;SDS011;48241;48.824;10.102;2023-03-01T15:55:19;18.98;;;12.48;;
62258;SDS011;48241;48.824;10.102;2023-03-01T15:58:09;19.15;;;11.77;;
62258;SDS011;48241;48.824;10.102;2023-03-01T16:00:37;19.85;;;12.65;;
62258;SDS011;48241;48.824;10.102;2023-03-01T16:03:04;18.70;;;11.45;;
62258;SDS011;48241;48.824;10.102;2023-03-01T16:05:31;18.83;;;12.20;;
62258;SDS011;48241;48.824;10.102;2023-03-01T16:07:59;16.92;;;12.00;;
62258;SDS011;48241;48.824;10.102;2023-03-01T16:10:25;17.63;;;11.35;;
62258;SDS011;48241;48.824;10.102;2023-03-01T16:12:52;19.30;;;12.15;;
62258;SDS011;48241;48.824;10.102;2023-03-01T16:15:25;19.65;;;12.38;;
62258;SDS011;48241;48.824;10.102;2023-03-01T16:17:53;14.65;;;10.18;;
62258;SDS011;48241;48.824;10.102;2023-03-01T16:20:19;11.50;;;6.10;;
62258;SDS011;48241;48.824;10.102;2023-03-01T16:22:45;17.98;;;11.52;;
62258;SDS011;48241;48.824;10.102;2023-03-01T16:25:15;18.55;;;11.52;;
62258;SDS011;48241;48.824;10.102;2023-03-01T16:27:42;18.17;;;11.80;;
62258;SDS011;48241;48.824;10.102;2023-03-01T16:30:09;19.13;;;11.18;;
62258;SDS011;48241;48.824;10.102;2023-03-01T16:32:42;19.50;;;11.90;;
62258;SDS011;48241;48.824;10.102;2023-03-01T16:35:10;19.02;;;11.98;;